Time;durP1;ratioP1;P1;durP2;ratioP2;P2;SDS_P1;SDS_P2;PMS_P1;PMS_P2;Temp;Humidity;BMP_temperature;BMP_pressure;BME280_temperature;BME280_humidity;BME280_pressure;Samples;Min_cycle;Max_cycle;Signal;HPM_P1;HPM_P2
2022/05/09 00:01:37;;;;;;;7.63;6.93;;;11.30;99.90;;;;;;6274706;22;20206;-69
2022/05/09 00:04:05;;;;;;;8.52;7.70;;;11.20;99.90;;;;;;6274221;22;20237;-69
2022/05/09 00:06:32;;;;;;;8.60;7.40;;;11.20;99.90;;;;;;6274178;22;20677;-69
2022/05/09 00:08:59;;;;;;;10.75;8.52;;;11.10;99.90;;;;;;6273545;22;20207;-69
2022/05/09 00:11:26;;;;;;;9.60;7.70;;;11.10;99.90;;;;;;6274578;22;20648;-69
2022/05/09 00:13:54;;;;;;;7.95;7.05;;;11.10;99.90;;;;;;6274179;22;20958;-69
2022/05/09 00:16:21;;;;;;;8.55;7.68;;;11.00;99.90;;;;;;6274996;22;20245;-69
2022/05/09 00:18:48;;;;;;;8.93;7.65;;;11.00;99.90;;;;;;6273872;22;20220;-69
2022/05/09 00:21:16;;;;;;;8.07;7.38;;;10.90;99.90;;;;;;6274790;22;20194;-69
2022/05/09 00:23:43;;;;;;;10.18;8.63;;;10.90;99.90;;;;;;6274389;22;20172;-69
2022/05/09 00:26:10;;;;;;;8.73;7.95;;;10.90;99.90;;;;;;6274568;22;20758;-69
2022/05/09 00:28:36;;;;;;;7.43;6.72;;;10.90;99.90;;;;;;6273647;22;20245;-69
2022/05/09 00:31:04;;;;;;;8.70;7.85;;;10.80;99.90;;;;;;6274245;22;20175;-69
2022/05/09 00:33:31;;;;;;;10.30;7.90;;;10.80;99.90;;;;;;6274390;22;20678;-69
2022/05/09 00:35:58;;;;;;;8.07;7.30;;;10.80;99.90;;;;;;6273710;22;20176;-69
2022/05/09 00:38:28;;;;;;;8.40;7.70;;;10.80;99.90;;;;;;6273024;22;20444;-68
2022/05/09 00:43:40;;;;;;;8.90;8.02;;;10.70;99.90;;;;;;6274332;22;20437;-69
2022/05/09 00:46:08;;;;;;;8.77;7.80;;;10.70;99.90;;;;;;6274244;22;20179;-69
2022/05/09 00:48:35;;;;;;;9.23;8.32;;;10.70;99.90;;;;;;6273628;22;20244;-69
2022/05/09 00:51:04;;;;;;;7.88;7.15;;;10.60;99.90;;;;;;6274530;22;20507;-69
2022/05/09 00:53:33;;;;;;;8.50;7.70;;;10.70;99.90;;;;;;6274053;22;20183;-69
2022/05/09 00:56:02;;;;;;;8.80;7.90;;;10.70;99.90;;;;;;6274043;22;20182;-69
2022/05/09 00:58:34;;;;;;;8.68;7.85;;;10.60;99.90;;;;;;6273394;22;20202;-69
2022/05/09 01:01:03;;;;;;;8.13;7.32;;;10.60;99.90;;;;;;6274002;22;20168;-68
2022/05/09 01:03:33;;;;;;;8.25;7.47;;;10.50;99.90;;;;;;6273902;22;20229;-68
2022/05/09 01:06:00;;;;;;;7.80;7.00;;;10.50;99.90;;;;;;6273967;22;20160;-68
2022/05/09 01:08:27;;;;;;;8.57;7.68;;;10.40;99.90;;;;;;6272474;22;20211;-69
2022/05/09 01:10:56;;;;;;;8.68;7.78;;;10.50;99.90;;;;;;6273794;22;20187;-70
2022/05/09 01:13:25;;;;;;;9.88;8.23;;;10.50;99.90;;;;;;6273752;22;20640;-69
2022/05/09 01:15:54;;;;;;;9.30;8.40;;;10.40;99.90;;;;;;6273417;22;20199;-69
2022/05/09 01:18:22;;;;;;;9.30;8.50;;;10.50;99.90;;;;;;6273291;22;20191;-69
2022/05/09 01:20:48;;;;;;;9.30;8.07;;;10.40;99.90;;;;;;6272782;22;20182;-69
2022/05/09 01:23:17;;;;;;;10.85;9.07;;;10.40;99.90;;;;;;6273446;22;20176;-69
2022/05/09 01:25:44;;;;;;;8.85;8.05;;;10.30;99.90;;;;;;6272421;22;20175;-69
2022/05/09 01:28:11;;;;;;;9.85;8.95;;;10.30;99.90;;;;;;6272766;22;20202;-70
2022/05/09 01:30:45;;;;;;;9.38;8.15;;;10.30;99.90;;;;;;6273916;22;20179;-69
2022/05/09 01:33:18;;;;;;;9.73;8.82;;;10.20;99.90;;;;;;6274276;22;20160;-69
2022/05/09 01:35:51;;;;;;;9.07;8.18;;;10.20;99.90;;;;;;6273510;22;20230;-69
2022/05/09 01:38:27;;;;;;;9.52;8.32;;;10.20;99.90;;;;;;6273036;22;20265;-69
2022/05/09 01:40:53;;;;;;;9.68;8.77;;;10.20;99.90;;;;;;6273660;22;20160;-69
2022/05/09 01:43:33;;;;;;;8.93;8.00;;;10.20;99.90;;;;;;6273639;22;20176;-69
2022/05/09 01:46:00;;;;;;;9.85;8.80;;;10.20;99.90;;;;;;6273646;22;20222;-69
2022/05/09 01:51:11;;;;;;;9.18;8.27;;;10.10;99.90;;;;;;6283958;22;20194;-69
2022/05/09 01:53:39;;;;;;;9.75;8.85;;;10.00;99.90;;;;;;6273152;22;20184;-69
2022/05/09 01:56:06;;;;;;;8.65;7.78;;;10.00;99.90;;;;;;6273569;22;20214;-69
2022/05/09 01:58:33;;;;;;;8.40;7.60;;;10.00;99.90;;;;;;6273155;22;20215;-69
2022/05/09 02:01:00;;;;;;;8.60;7.65;;;10.00;99.90;;;;;;6273462;22;20183;-69
2022/05/09 02:03:27;;;;;;;9.20;8.35;;;10.00;99.90;;;;;;6273792;22;20509;-68
2022/05/09 02:05:53;;;;;;;10.25;8.02;;;10.00;99.90;;;;;;6273386;22;20724;-68
2022/05/09 02:08:20;;;;;;;9.65;8.70;;;9.90;99.90;;;;;;6272936;22;20207;-69
2022/05/09 02:10:49;;;;;;;10.35;9.23;;;9.90;99.90;;;;;;6273551;22;20160;-69
2022/05/09 02:13:15;;;;;;;10.88;9.77;;;9.90;99.90;;;;;;6273539;22;20702;-69
2022/05/09 02:15:42;;;;;;;9.95;8.95;;;9.90;99.90;;;;;;6273593;22;20192;-69
2022/05/09 02:18:09;;;;;;;12.68;9.05;;;9.80;99.90;;;;;;6272649;22;20555;-69
2022/05/09 02:20:35;;;;;;;9.77;8.85;;;9.80;99.90;;;;;;6273644;22;20183;-69
2022/05/09 02:23:02;;;;;;;9.60;8.70;;;9.80;99.90;;;;;;6273459;22;20172;-69
2022/05/09 02:25:30;;;;;;;10.77;9.27;;;9.70;99.90;;;;;;6273574;22;20171;-71
2022/05/09 02:27:58;;;;;;;10.73;9.10;;;9.80;99.90;;;;;;6272457;22;20196;-71
2022/05/09 02:30:25;;;;;;;9.60;8.60;;;9.80;99.90;;;;;;6273316;22;20668;-69
2022/05/09 02:32:52;;;;;;;8.98;8.10;;;9.80;99.90;;;;;;6273663;22;20176;-69
2022/05/09 02:35:20;;;;;;;9.00;8.10;;;9.80;99.90;;;;;;6273566;22;20226;-69
2022/05/09 02:37:48;;;;;;;11.32;10.23;;;9.90;99.90;;;;;;6273090;22;20245;-69
2022/05/09 02:40:15;;;;;;;8.75;7.95;;;9.80;99.90;;;;;;6272597;22;20180;-69
2022/05/09 02:42:42;;;;;;;10.82;9.80;;;9.80;99.90;;;;;;6273600;22;20577;-68
2022/05/09 02:45:12;;;;;;;10.80;9.70;;;9.80;99.90;;;;;;6273248;22;20172;-69
2022/05/09 02:47:40;;;;;;;9.60;8.70;;;9.70;99.90;;;;;;6273466;22;20180;-68
2022/05/09 02:50:09;;;;;;;9.23;8.32;;;9.80;99.90;;;;;;6272562;22;20172;-69
2022/05/09 02:52:36;;;;;;;10.43;9.43;;;9.70;99.90;;;;;;6273634;22;20226;-69
2022/05/09 02:55:03;;;;;;;10.20;9.20;;;9.70;99.90;;;;;;6272837;22;20188;-69
2022/05/09 02:57:30;;;;;;;12.23;9.77;;;9.70;99.90;;;;;;6273224;22;20183;-69
2022/05/09 02:59:59;;;;;;;10.25;9.25;;;9.60;99.90;;;;;;6272733;22;20254;-68
2022/05/09 03:02:27;;;;;;;10.70;9.65;;;9.50;99.90;;;;;;6274261;22;20179;-68
2022/05/09 03:04:53;;;;;;;9.75;8.35;;;9.50;99.90;;;;;;6275107;22;20551;-69
2022/05/09 03:07:22;;;;;;;10.43;9.23;;;9.50;99.90;;;;;;6274997;22;20178;-69
2022/05/09 03:09:50;;;;;;;9.55;8.63;;;9.50;99.90;;;;;;6273859;22;20685;-69
2022/05/09 03:12:19;;;;;;;10.95;9.20;;;9.50;99.90;;;;;;6274505;22;20176;-69
2022/05/09 03:14:47;;;;;;;10.70;9.70;;;9.40;99.90;;;;;;6274951;22;20191;-69
2022/05/09 03:17:15;;;;;;;10.85;9.85;;;9.40;99.90;;;;;;6275339;22;20176;-69
2022/05/09 03:19:43;;;;;;;10.50;9.50;;;9.40;99.90;;;;;;6273882;22;20192;-69
2022/05/09 03:22:10;;;;;;;13.93;8.93;;;9.40;99.90;;;;;;6275189;22;20180;-69
2022/05/09 03:24:37;;;;;;;10.85;9.35;;;9.40;99.90;;;;;;6274087;22;20178;-69
2022/05/09 03:27:06;;;;;;;10.15;8.77;;;9.40;99.90;;;;;;6274169;22;20179;-69
2022/05/09 03:29:33;;;;;;;10.63;9.65;;;9.40;99.90;;;;;;6274305;22;20192;-69
2022/05/09 03:32:00;;;;;;;11.15;9.85;;;9.40;99.90;;;;;;6273724;22;20182;-69
2022/05/09 03:34:27;;;;;;;10.02;8.98;;;9.40;99.90;;;;;;6274756;22;20226;-69
2022/05/09 03:36:55;;;;;;;10.60;9.35;;;9.30;99.90;;;;;;6274531;22;20218;-68
2022/05/09 03:44:17;;;;;;;10.63;9.63;;;9.30;99.90;;;;;;6244054;23;20208;-70
2022/05/09 03:46:45;;;;;;;10.77;9.32;;;9.30;99.90;;;;;;6242388;23;20180;-71
2022/05/09 03:49:12;;;;;;;10.43;9.43;;;9.40;99.90;;;;;;6241973;23;20218;-69
2022/05/09 03:51:38;;;;;;;9.90;9.00;;;9.30;99.90;;;;;;6242933;23;20561;-69
2022/05/09 03:54:06;;;;;;;11.25;9.40;;;9.30;99.90;;;;;;6242837;23;20180;-71
2022/05/09 03:56:33;;;;;;;10.27;9.27;;;9.30;99.90;;;;;;6243653;23;20200;-71
2022/05/09 03:59:00;;;;;;;9.88;8.90;;;9.30;99.90;;;;;;6241843;23;20196;-71
2022/05/09 04:01:27;;;;;;;13.93;9.50;;;9.30;99.90;;;;;;6252524;23;20191;-72
2022/05/09 04:03:53;;;;;;;10.05;9.05;;;9.30;99.90;;;;;;6242559;23;20180;-71
2022/05/09 04:06:21;;;;;;;10.38;9.27;;;9.30;99.90;;;;;;6242457;23;20168;-71
2022/05/09 04:11:24;;;;;;;10.20;9.20;;;9.30;99.90;;;;;;6239492;22;20210;-70
2022/05/09 04:13:51;;;;;;;10.50;9.40;;;9.30;99.90;;;;;;6244579;23;20177;-70
2022/05/09 04:19:02;;;;;;;9.73;8.82;;;9.30;99.90;;;;;;6252583;23;20234;-71
2022/05/09 04:21:29;;;;;;;11.27;10.27;;;9.30;99.90;;;;;;6242986;23;20263;-70
2022/05/09 04:23:58;;;;;;;10.80;9.70;;;9.30;99.90;;;;;;6243655;23;20509;-71
2022/05/09 04:26:27;;;;;;;10.80;9.70;;;9.30;99.90;;;;;;6243561;23;20290;-72
2022/05/09 04:28:54;;;;;;;10.75;9.73;;;9.30;99.90;;;;;;6242206;23;20642;-71
2022/05/09 04:31:22;;;;;;;10.32;9.32;;;9.40;99.90;;;;;;6243382;23;20180;-71
2022/05/09 04:33:49;;;;;;;11.30;9.93;;;9.40;99.90;;;;;;6243447;23;20176;-71
2022/05/09 04:36:15;;;;;;;10.95;9.82;;;9.40;99.90;;;;;;6241555;23;20189;-71
2022/05/09 04:38:43;;;;;;;11.82;10.32;;;9.50;99.90;;;;;;6241400;23;20196;-71
2022/05/09 04:41:13;;;;;;;10.52;9.63;;;9.50;99.90;;;;;;6243705;23;20173;-71
2022/05/09 04:43:41;;;;;;;11.10;10.00;;;9.60;99.90;;;;;;6243738;23;20501;-71
2022/05/09 04:46:08;;;;;;;10.90;9.75;;;9.60;99.90;;;;;;6243809;23;20176;-71
2022/05/09 04:48:35;;;;;;;11.05;9.45;;;9.70;99.90;;;;;;6243372;23;20216;-71
2022/05/09 04:51:01;;;;;;;11.05;9.48;;;9.70;99.90;;;;;;6244179;23;20176;-71
2022/05/09 04:53:28;;;;;;;12.85;10.57;;;9.70;99.90;;;;;;6243810;23;20180;-71
2022/05/09 04:55:56;;;;;;;13.65;10.45;;;9.80;99.90;;;;;;6243388;23;20193;-71
2022/05/09 04:58:23;;;;;;;12.27;10.00;;;9.90;99.90;;;;;;6252879;23;20196;-71
2022/05/09 05:00:51;;;;;;;11.45;10.02;;;9.90;99.90;;;;;;6243547;23;20177;-71
2022/05/09 05:03:18;;;;;;;10.65;9.55;;;10.00;99.90;;;;;;6243503;23;20506;-71
2022/05/09 05:05:45;;;;;;;10.70;9.63;;;10.10;99.90;;;;;;6243202;23;20168;-71
2022/05/09 05:08:14;;;;;;;11.70;10.50;;;10.10;99.90;;;;;;6242701;23;20192;-71
2022/05/09 05:10:41;;;;;;;11.93;10.82;;;10.20;99.90;;;;;;6243288;22;20580;-71
2022/05/09 05:13:08;;;;;;;12.15;10.90;;;10.30;99.90;;;;;;6243118;23;20169;-72
2022/05/09 05:15:35;;;;;;;11.20;9.98;;;10.40;99.90;;;;;;6243449;23;20518;-71
2022/05/09 05:18:03;;;;;;;11.80;10.70;;;10.50;99.90;;;;;;6242612;23;20197;-72
2022/05/09 05:20:30;;;;;;;11.50;10.32;;;10.60;99.90;;;;;;6243393;23;20183;-72
2022/05/09 05:22:57;;;;;;;11.13;10.13;;;10.70;99.90;;;;;;6243225;23;20208;-71
2022/05/09 05:25:27;;;;;;;10.68;9.57;;;10.80;99.90;;;;;;6242849;23;20626;-71
2022/05/09 05:27:54;;;;;;;10.55;9.55;;;10.90;99.90;;;;;;6252782;23;20189;-71
2022/05/09 05:30:21;;;;;;;10.90;9.90;;;11.00;99.90;;;;;;6242433;23;20173;-71
2022/05/09 05:32:48;;;;;;;11.52;10.43;;;11.10;99.90;;;;;;6242634;23;20260;-71
2022/05/09 05:35:18;;;;;;;12.55;11.25;;;11.20;99.90;;;;;;6243103;23;20279;-72
2022/05/09 05:37:45;;;;;;;13.75;12.02;;;11.30;99.90;;;;;;6243249;23;20172;-70
2022/05/09 05:40:13;;;;;;;12.23;11.02;;;11.40;99.90;;;;;;6243366;23;20172;-70
2022/05/09 05:42:41;;;;;;;15.02;11.00;;;11.60;99.90;;;;;;6243223;23;20510;-70
2022/05/09 05:45:09;;;;;;;11.65;10.55;;;11.70;99.90;;;;;;6243187;23;20168;-70
2022/05/09 05:47:36;;;;;;;10.70;9.63;;;11.90;99.90;;;;;;6243208;23;20535;-70
2022/05/09 05:50:03;;;;;;;12.57;10.63;;;12.00;99.90;;;;;;6242099;23;20173;-70
2022/05/09 05:52:31;;;;;;;12.25;10.13;;;12.20;99.90;;;;;;6243437;23;20426;-70
2022/05/09 05:54:58;;;;;;;12.07;10.88;;;12.30;99.90;;;;;;6243093;23;20234;-70
2022/05/09 05:57:26;;;;;;;11.45;10.35;;;12.40;99.90;;;;;;6243072;23;20180;-70
2022/05/09 05:59:55;;;;;;;11.10;9.90;;;12.60;99.90;;;;;;6242379;23;20208;-70
2022/05/09 06:02:23;;;;;;;11.05;10.05;;;12.70;99.90;;;;;;6243120;23;20803;-71
2022/05/09 06:04:50;;;;;;;10.90;9.90;;;12.90;99.90;;;;;;6243064;23;20187;-71
2022/05/09 06:07:17;;;;;;;11.05;9.95;;;13.00;99.90;;;;;;6243139;23;20432;-71
2022/05/09 06:09:46;;;;;;;11.00;9.83;;;13.10;99.90;;;;;;6242226;22;20200;-70
2022/05/09 06:12:15;;;;;;;10.10;9.10;;;13.20;99.90;;;;;;6243241;23;20518;-71
2022/05/09 06:14:42;;;;;;;9.10;8.20;;;13.30;99.90;;;;;;6243050;23;20935;-70
2022/05/09 06:17:11;;;;;;;10.67;8.70;;;13.50;99.90;;;;;;6243408;23;20811;-71
2022/05/09 06:19:38;;;;;;;9.47;8.57;;;13.60;99.90;;;;;;6242193;23;20446;-71
2022/05/09 06:22:05;;;;;;;9.60;8.40;;;13.70;99.90;;;;;;6243220;23;20442;-71
2022/05/09 06:24:32;;;;;;;9.30;8.53;;;13.80;99.90;;;;;;6242847;23;20426;-71
2022/05/09 06:27:00;;;;;;;10.20;8.77;;;13.90;99.90;;;;;;6242800;23;20416;-71
2022/05/09 06:29:27;;;;;;;7.60;7.00;;;13.90;99.90;;;;;;6242218;23;20439;-71
2022/05/09 06:31:54;;;;;;;7.90;7.20;;;14.00;99.90;;;;;;6242897;23;20419;-71
2022/05/09 06:34:21;;;;;;;7.93;7.23;;;14.10;99.90;;;;;;6242630;23;20935;-71
2022/05/09 06:36:48;;;;;;;8.37;7.40;;;14.20;99.90;;;;;;6242720;23;20435;-70
2022/05/09 06:39:14;;;;;;;8.00;7.30;;;14.40;99.90;;;;;;6244314;23;20440;-70
2022/05/09 06:41:41;;;;;;;9.67;8.50;;;14.50;99.90;;;;;;6244529;23;20446;-70
2022/05/09 06:44:09;;;;;;;9.40;8.60;;;14.60;99.90;;;;;;6244109;23;20480;-70
2022/05/09 06:46:36;;;;;;;9.83;8.93;;;14.70;99.90;;;;;;6240313;23;20939;-70
2022/05/09 06:49:03;;;;;;;9.73;8.60;;;14.90;99.90;;;;;;6239402;23;20815;-70
2022/05/09 06:51:30;;;;;;;9.20;8.30;;;14.90;99.90;;;;;;6241232;23;20427;-70
2022/05/09 06:53:57;;;;;;;8.67;7.87;;;15.10;99.90;;;;;;6241283;23;20889;-70
2022/05/09 06:56:23;;;;;;;7.63;6.93;;;15.20;99.90;;;;;;6241161;23;20471;-70
2022/05/09 06:58:50;;;;;;;10.03;8.10;;;15.20;99.90;;;;;;6240243;23;20446;-70
2022/05/09 07:01:20;;;;;;;7.90;7.10;;;15.40;99.90;;;;;;6242072;23;20842;-70
2022/05/09 07:03:47;;;;;;;8.30;7.50;;;15.40;99.90;;;;;;6241727;23;20419;-70
2022/05/09 07:06:16;;;;;;;7.93;7.27;;;15.50;99.90;;;;;;6241606;23;20442;-70
2022/05/09 07:08:43;;;;;;;9.30;7.00;;;15.60;99.90;;;;;;6240673;23;20449;-70
2022/05/09 07:11:11;;;;;;;8.30;7.60;;;15.60;99.90;;;;;;6241008;22;21028;-70
2022/05/09 07:13:38;;;;;;;9.10;7.53;;;15.70;99.90;;;;;;6240719;23;20477;-70
2022/05/09 07:16:08;;;;;;;7.30;6.60;;;15.80;99.90;;;;;;6240070;23;20470;-70
2022/05/09 07:18:38;;;;;;;7.47;6.77;;;15.80;99.90;;;;;;6236280;23;20439;-70
2022/05/09 07:21:05;;;;;;;8.23;7.20;;;15.90;99.90;;;;;;6248362;23;20430;-70
2022/05/09 07:23:33;;;;;;;8.83;7.90;;;15.80;99.90;;;;;;6239874;23;20868;-70
2022/05/09 07:26:00;;;;;;;9.63;8.00;;;15.90;99.90;;;;;;6240036;23;20493;-70
2022/05/09 07:28:28;;;;;;;7.37;6.67;;;15.80;99.90;;;;;;6238668;23;20932;-70
2022/05/09 07:30:56;;;;;;;8.17;7.00;;;15.90;99.90;;;;;;6238229;23;20646;-70
2022/05/09 07:33:23;;;;;;;8.23;7.43;;;16.00;99.90;;;;;;6238613;23;20928;-70
2022/05/09 07:35:51;;;;;;;7.93;7.13;;;16.10;99.90;;;;;;6239465;23;20446;-70
2022/05/09 07:38:18;;;;;;;7.33;6.73;;;16.20;99.90;;;;;;6239007;23;20436;-70
2022/05/09 07:40:47;;;;;;;7.40;6.80;;;16.30;99.90;;;;;;6238820;23;20429;-70
2022/05/09 07:43:17;;;;;;;6.83;6.23;;;16.40;99.90;;;;;;6239903;23;20423;-71
2022/05/09 07:45:44;;;;;;;8.20;7.40;;;16.60;99.90;;;;;;6239591;23;20433;-70
2022/05/09 07:48:11;;;;;;;10.57;8.60;;;16.70;99.90;;;;;;6238470;23;20759;-70
2022/05/09 07:50:39;;;;;;;8.50;7.70;;;16.80;99.90;;;;;;6238606;23;20982;-70
2022/05/09 07:53:09;;;;;;;7.73;6.87;;;16.90;99.90;;;;;;6239430;23;20726;-71
2022/05/09 07:55:36;;;;;;;8.40;6.77;;;17.00;99.90;;;;;;6238587;23;20426;-71
2022/05/09 07:58:03;;;;;;;7.93;7.10;;;17.10;99.90;;;;;;6238810;23;20447;-71
2022/05/09 08:00:30;;;;;;;7.97;7.27;;;17.30;99.90;;;;;;6239297;23;20423;-71
2022/05/09 08:02:56;;;;;;;7.90;7.20;;;17.40;99.90;;;;;;6238830;23;20453;-71
2022/05/09 08:05:23;;;;;;;8.00;7.23;;;17.60;99.90;;;;;;6238836;23;20423;-71
2022/05/09 08:07:50;;;;;;;8.23;7.40;;;17.70;99.90;;;;;;6238022;23;20435;-71
2022/05/09 08:10:19;;;;;;;9.50;7.87;;;17.80;99.90;;;;;;6237335;22;20454;-71
2022/05/09 08:12:47;;;;;;;7.70;7.00;;;18.00;99.90;;;;;;6239017;23;20442;-71
2022/05/09 08:15:16;;;;;;;10.80;7.63;;;17.90;99.90;;;;;;6238973;23;20419;-71
2022/05/09 08:17:45;;;;;;;8.80;7.20;;;18.00;99.90;;;;;;6238060;23;20457;-71
2022/05/09 08:20:13;;;;;;;8.03;7.07;;;18.10;99.90;;;;;;6238347;23;20786;-71
2022/05/09 08:22:41;;;;;;;10.70;7.87;;;18.20;99.90;;;;;;6238952;23;20455;-71
2022/05/09 08:25:09;;;;;;;8.87;6.50;;;18.30;99.90;;;;;;6238665;23;20423;-71
2022/05/09 08:27:37;;;;;;;7.70;7.00;;;18.40;99.90;;;;;;6239498;23;20422;-71
2022/05/09 08:30:05;;;;;;;8.47;6.90;;;18.50;99.90;;;;;;6238987;23;20439;-71
2022/05/09 08:32:31;;;;;;;8.83;8.07;;;18.40;99.90;;;;;;6239543;23;20797;-70
2022/05/09 08:34:58;;;;;;;7.80;7.10;;;18.40;99.90;;;;;;6239232;23;20423;-71
2022/05/09 08:37:25;;;;;;;8.10;7.10;;;18.40;99.90;;;;;;6239259;23;20466;-71
2022/05/09 08:39:52;;;;;;;7.60;6.90;;;18.40;99.90;;;;;;6238988;23;20419;-71
2022/05/09 08:42:23;;;;;;;7.30;6.60;;;18.40;99.90;;;;;;6238499;23;20427;-71
2022/05/09 08:45:12;;;;;;;6.87;6.33;;;18.70;99.90;;;;;;6239823;23;20411;-70
2022/05/09 08:48:04;;;;;;;7.43;6.73;;;18.90;99.90;;;;;;6239052;23;20414;-71
2022/05/09 08:50:42;;;;;;;7.03;6.37;;;19.20;99.90;;;;;;6238687;23;20442;-71
2022/05/09 08:53:11;;;;;;;7.30;6.67;;;19.70;99.90;;;;;;6239175;23;20407;-70
2022/05/09 08:55:41;;;;;;;7.70;7.10;;;20.00;99.90;;;;;;6239106;23;20427;-70
2022/05/09 08:58:19;;;;;;;7.37;6.77;;;20.10;99.90;;;;;;6238386;23;20454;-70
2022/05/09 09:00:49;;;;;;;7.30;6.70;;;20.40;99.90;;;;;;6239145;23;20404;-70
2022/05/09 09:03:25;;;;;;;6.63;6.03;;;20.60;99.90;;;;;;6238793;23;20900;-70
2022/05/09 09:05:54;;;;;;;7.53;6.63;;;21.00;99.90;;;;;;6239317;23;20713;-71
2022/05/09 09:08:31;;;;;;;6.43;5.83;;;21.20;99.90;;;;;;6247843;23;20443;-70
2022/05/09 09:11:09;;;;;;;7.20;6.03;;;21.50;99.90;;;;;;6238929;22;20476;-70
2022/05/09 09:13:49;;;;;;;6.57;5.97;;;21.90;99.90;;;;;;6238906;23;20438;-72
2022/05/09 09:16:26;;;;;;;6.10;5.50;;;21.90;99.50;;;;;;6238759;23;20460;-72
2022/05/09 09:19:10;;;;;;;6.03;5.53;;;22.30;99.90;;;;;;6238915;23;20442;-70
2022/05/09 09:21:52;;;;;;;5.80;5.10;;;22.50;99.60;;;;;;6239433;23;20465;-70
2022/05/09 09:24:34;;;;;;;6.03;5.23;;;23.00;99.90;;;;;;6238786;23;20408;-71
2022/05/09 09:27:08;;;;;;;5.57;5.07;;;23.60;99.90;;;;;;6239089;23;20879;-71
2022/05/09 09:29:45;;;;;;;6.97;6.37;;;24.00;99.10;;;;;;6236717;23;20442;-70
2022/05/09 09:32:18;;;;;;;6.90;5.57;;;24.40;98.60;;;;;;6238818;23;20403;-70
2022/05/09 09:34:51;;;;;;;5.17;4.77;;;24.60;97.10;;;;;;6239152;23;20781;-70
2022/05/09 09:37:21;;;;;;;7.20;5.70;;;24.90;97.20;;;;;;6238349;23;20940;-72
2022/05/09 09:39:48;;;;;;;7.50;5.90;;;24.60;96.20;;;;;;6238569;23;20443;-71
2022/05/09 09:42:15;;;;;;;6.50;5.90;;;24.30;96.20;;;;;;6238795;23;20509;-70
2022/05/09 09:44:45;;;;;;;7.23;6.47;;;24.30;96.40;;;;;;6239292;23;20446;-71
2022/05/09 09:47:23;;;;;;;6.90;6.30;;;24.40;97.80;;;;;;6239487;23;20453;-71
2022/05/09 09:50:09;;;;;;;6.17;5.60;;;24.40;96.70;;;;;;6237708;23;20466;-71
2022/05/09 09:52:43;;;;;;;6.20;5.60;;;24.80;97.30;;;;;;6238512;23;20908;-71
2022/05/09 09:55:21;;;;;;;6.93;6.27;;;25.00;95.50;;;;;;6239533;23;20728;-72
2022/05/09 09:57:48;;;;;;;6.53;5.97;;;24.80;94.80;;;;;;6239125;23;20450;-71
2022/05/09 10:00:19;;;;;;;7.10;5.40;;;24.70;95.50;;;;;;6238141;23;20514;-70
2022/05/09 10:02:48;;;;;;;6.63;5.93;;;24.50;96.00;;;;;;6238946;23;20792;-72
2022/05/09 10:05:18;;;;;;;6.10;5.50;;;23.80;94.90;;;;;;6238089;23;20912;-72
2022/05/09 10:07:45;;;;;;;6.97;6.03;;;23.80;95.90;;;;;;6238849;23;20754;-72
2022/05/09 10:10:16;;;;;;;5.53;5.03;;;24.10;94.40;;;;;;6237854;22;20442;-72
2022/05/09 10:12:46;;;;;;;6.30;5.80;;;24.00;94.60;;;;;;6240327;23;20980;-71
2022/05/09 10:15:30;;;;;;;5.70;5.10;;;24.00;94.60;;;;;;6239020;23;20418;-71
2022/05/09 10:17:59;;;;;;;6.40;5.70;;;24.00;97.20;;;;;;6239977;23;20989;-71
2022/05/09 10:20:34;;;;;;;6.77;6.20;;;24.20;96.80;;;;;;6239774;23;20426;-71
2022/05/09 10:26:03;;;;;;;6.80;6.10;;;23.70;96.20;;;;;;6250410;23;20477;-71
2022/05/09 10:28:34;;;;;;;6.83;6.10;;;23.60;95.80;;;;;;6238172;23;20438;-71
2022/05/09 10:31:11;;;;;;;6.03;5.50;;;23.70;95.90;;;;;;6239706;23;20407;-71
2022/05/09 10:33:46;;;;;;;6.70;6.10;;;23.50;95.70;;;;;;6239718;23;20410;-72
2022/05/09 10:36:20;;;;;;;6.27;5.67;;;23.40;96.20;;;;;;6240413;23;20906;-71
2022/05/09 10:38:52;;;;;;;6.03;5.53;;;23.70;96.00;;;;;;6239030;23;20442;-71
2022/05/09 10:41:28;;;;;;;6.50;5.90;;;24.20;96.10;;;;;;6240005;23;20811;-71
2022/05/09 10:43:59;;;;;;;7.00;6.10;;;24.80;95.50;;;;;;6239661;23;20410;-71
2022/05/09 10:46:35;;;;;;;6.30;5.80;;;25.10;95.00;;;;;;6239077;23;20407;-72
2022/05/09 10:49:11;;;;;;;6.50;6.00;;;25.50;95.10;;;;;;6239092;23;20445;-71
2022/05/09 10:51:43;;;;;;;6.43;5.83;;;26.30;94.90;;;;;;6239112;23;20796;-71
2022/05/09 10:54:18;;;;;;;6.30;5.80;;;27.10;94.30;;;;;;6239910;23;20413;-71
2022/05/09 10:56:49;;;;;;;6.00;5.40;;;27.70;92.00;;;;;;6239436;23;20424;-70
2022/05/09 10:59:21;;;;;;;6.47;5.80;;;27.80;92.20;;;;;;6238303;23;21015;-72
2022/05/09 11:01:56;;;;;;;6.37;5.70;;;27.50;91.40;;;;;;6239230;23;20403;-70
2022/05/09 11:04:25;;;;;;;6.30;5.80;;;27.50;91.30;;;;;;6239300;23;20403;-70
2022/05/09 11:07:01;;;;;;;5.03;4.63;;;27.60;91.50;;;;;;6239121;23;20418;-70
2022/05/09 11:09:42;;;;;;;5.93;5.40;;;27.70;91.10;;;;;;6238266;22;20454;-70
2022/05/09 11:12:25;;;;;;;5.70;5.30;;;27.50;91.00;;;;;;6239935;23;20889;-70
2022/05/09 11:15:03;;;;;;;8.33;5.67;;;27.00;90.70;;;;;;6239275;23;20503;-70
2022/05/09 11:17:51;;;;;;;6.00;5.50;;;26.30;91.00;;;;;;6239074;23;21006;-70
2022/05/09 11:20:27;;;;;;;6.07;5.47;;;25.60;92.40;;;;;;6238755;23;20775;-72
2022/05/09 11:23:05;;;;;;;7.17;5.03;;;25.70;92.90;;;;;;6242325;23;20802;-72
2022/05/09 11:25:48;;;;;;;5.67;5.17;;;26.70;92.60;;;;;;6241551;23;20399;-70
2022/05/09 11:28:37;;;;;;;5.00;4.60;;;26.90;91.50;;;;;;6241144;23;20948;-72
2022/05/09 11:31:14;;;;;;;5.37;4.87;;;26.40;91.70;;;;;;6242768;23;20741;-72
2022/05/09 11:33:58;;;;;;;5.13;4.63;;;26.80;91.40;;;;;;6241860;23;20403;-72
2022/05/09 11:36:40;;;;;;;5.60;5.10;;;27.10;91.50;;;;;;6241779;23;20415;-72
2022/05/09 11:39:14;;;;;;;5.60;5.00;;;27.10;90.90;;;;;;6241999;23;20431;-71
2022/05/09 11:41:49;;;;;;;5.23;4.73;;;27.40;91.80;;;;;;6242351;23;20462;-71
2022/05/09 11:44:18;;;;;;;7.20;4.90;;;27.40;92.30;;;;;;6241859;23;20410;-71
2022/05/09 11:47:02;;;;;;;4.67;4.27;;;27.90;90.90;;;;;;6242432;23;20442;-71
2022/05/09 11:49:45;;;;;;;4.90;4.57;;;28.00;90.40;;;;;;6240466;23;20446;-71
2022/05/09 11:52:21;;;;;;;4.93;4.43;;;28.50;89.50;;;;;;6238124;23;20426;-71
2022/05/09 11:54:50;;;;;;;5.10;4.60;;;28.30;89.90;;;;;;6240565;23;20411;-71
2022/05/09 11:57:24;;;;;;;5.17;4.60;;;28.10;90.20;;;;;;6241698;23;20512;-71
2022/05/09 11:59:56;;;;;;;5.40;4.90;;;28.10;90.00;;;;;;6240529;23;20885;-70
2022/05/09 12:02:51;;;;;;;5.17;4.50;;;28.30;89.10;;;;;;6241513;23;20454;-70
2022/05/09 12:06:01;;;;;;;6.00;4.67;;;28.10;86.80;;;;;;6240887;23;20736;-70
2022/05/09 12:08:44;;;;;;;5.07;4.57;;;27.70;87.00;;;;;;6234437;23;20441;-71
2022/05/09 12:11:30;;;;;;;5.13;4.70;;;27.00;86.90;;;;;;6242433;22;20547;-71
2022/05/09 12:13:58;;;;;;;5.07;4.67;;;26.80;88.20;;;;;;6241869;23;20403;-71
2022/05/09 12:16:51;;;;;;;5.03;4.30;;;26.80;91.00;;;;;;6241777;23;20422;-71
2022/05/09 12:19:30;;;;;;;4.53;4.10;;;27.30;90.90;;;;;;6241175;23;20459;-71
2022/05/09 12:24:54;;;;;;;5.20;4.70;;;28.50;87.10;;;;;;6272472;22;20411;-72
2022/05/09 12:27:56;;;;;;;5.30;4.80;;;28.70;85.60;;;;;;6271400;22;20398;-72
2022/05/09 12:30:47;;;;;;;4.90;4.33;;;28.80;87.50;;;;;;6236375;23;20472;-72
2022/05/09 12:33:28;;;;;;;5.80;5.20;;;28.90;85.70;;;;;;6242091;23;20408;-72
2022/05/09 12:35:57;;;;;;;5.13;4.70;;;28.70;86.40;;;;;;6241045;23;20399;-72
2022/05/09 12:38:26;;;;;;;4.80;4.40;;;29.00;86.30;;;;;;6241196;23;20502;-72
2022/05/09 12:41:05;;;;;;;5.20;4.80;;;28.90;87.20;;;;;;6241486;23;20767;-72
2022/05/09 12:43:35;;;;;;;5.13;4.73;;;28.50;84.30;;;;;;6241225;23;20426;-73
2022/05/09 12:46:04;;;;;;;4.80;4.50;;;28.20;85.60;;;;;;6242260;23;20427;-73
2022/05/09 12:48:31;;;;;;;4.70;4.30;;;28.00;85.70;;;;;;6240707;23;20439;-72
2022/05/09 12:51:04;;;;;;;7.67;5.10;;;27.50;86.70;;;;;;6241629;23;20799;-72
2022/05/09 12:53:33;;;;;;;4.70;4.30;;;27.30;86.80;;;;;;6241756;23;20411;-72
2022/05/09 12:56:08;;;;;;;4.87;4.47;;;27.10;87.40;;;;;;6241842;23;20426;-72
2022/05/09 12:58:37;;;;;;;5.27;4.60;;;27.40;86.90;;;;;;6240713;23;20767;-72
2022/05/09 13:01:07;;;;;;;4.63;4.33;;;27.20;88.20;;;;;;6242149;23;20419;-72
2022/05/09 13:03:46;;;;;;;4.53;4.10;;;26.80;87.90;;;;;;6241487;23;20502;-72
2022/05/09 13:06:16;;;;;;;5.53;5.03;;;26.10;87.90;;;;;;6240955;23;20399;-72
2022/05/09 13:08:43;;;;;;;6.53;5.80;;;26.00;90.00;;;;;;6240624;23;20435;-72
2022/05/09 13:11:15;;;;;;;5.83;4.60;;;26.20;90.70;;;;;;6241603;23;20749;-72
2022/05/09 13:13:55;;;;;;;5.90;4.67;;;26.60;90.20;;;;;;6241388;23;20440;-72
2022/05/09 13:16:34;;;;;;;5.17;4.70;;;27.20;90.10;;;;;;6240767;23;20422;-72
2022/05/09 13:19:01;;;;;;;6.20;4.90;;;27.70;87.10;;;;;;6240067;23;20533;-72
2022/05/09 13:21:33;;;;;;;5.07;4.67;;;28.10;88.50;;;;;;6241583;23;20474;-72
2022/05/09 13:24:03;;;;;;;5.60;4.53;;;28.50;88.70;;;;;;6221256;23;20436;-72